aviador You're here:

KLOR Decoded Metar

LOWE AHP/FT. RUC in AL, USA
Report Time2017-08-18 15:54:00
UTC Time2017-08-18 16:27:50
Flight Rules vfr VFR
Wind300° at 09 kt
W.Decomp.*RWY 36: 4.9 kt HW 7.5 kt LCW
RWY 24: 4.1 kt HW 8.0 kt RCW
W.Rank300° ranks 21
Current wind is above 300° avg. (6.6)
Visibility9999 m
Phenomena:N/A
Clouds:Scattered 028 Hf
Expected CloudBase > 2,800 ft AGL from Temp-Dew spread
CeilingNone
Temp31°C (ISA +16)
Dew Point24°C (66% RH)
Heat Index36.4°C
QNH1017 hPa
Density Alt2,385 ft
Elevation243 ft
Report Wrong Elevation
Raw Report
KLOR 181554Z AUTO 30009KT 10SM SCT028 31/24 A3002 RMK AO2
SLP146=

Extra information for KLOR:More info

Metar Taf Metar & Taf Last 4 Metars F.Rules Stats Wind Profile Meteogram Temp Stats Airport Information Weather charts Add Link Nearby VenuesMetar ALERT Operation Metar Decoded Social comments

AIRNAV info for KLOR